Portada
METAR-TAF:

METAR-TAF

Aeroports :

Sandakan, Malàisia

latitud: 05-54N, longitud: 118-04E, altitud: 12 m

Observació

L'informe es va fer fa 34 minuts, a les 03:00 UTC
Vent 5 kt amb direcció variable
Temperatura 33°C
Humitat 67%
Pressió 1012 hPa
Visibilitat 10 km o més
Núvols disperses a una alçada de 1600 ft
Escasses núvols a una alçada de 1700 ft, Cumulonimbus.

METAR: WBKS 270300Z VRB05KT 9999 SCT016 FEW017CB 33/26 Q1012

Hora: 11:34 (03:34 UTC)

Pronòstic

L'informe es va fer fa 4 hores i 34 minuts, a les 23:00 UTC
Pronòstic vàlid del 27 a les 00 UTC al 28 a les 00 UTC
Vent 5 kt del Est/Nord-Est
Visibilitat 10 km o més
Escasses núvols a una alçada de 1500 ft

TAF: WBKS 262300Z 2700/2800 06005KT 9999 FEW015

Observacions i pronòstics meteorològics de més de 4000 aeroports (METAR i TAF).

Les estacions disponibles són els punts grocs i vermells al mapa.

Posi el ratolí al punt desitjat per veure el nom de l'estació.

Feu clic per veure les observacions i els pronòstics meteorològics.

Per canviar el mapa: feu clic els botons verds amb una creu de color negre per apropar; al botó verd amb un guió per allunyar la imatge; o en les fletxes verdes per a mapes adjacents.


METAR-TAF: